Time;durP1;ratioP1;P1;durP2;ratioP2;P2;SDS_P1;SDS_P2;PMS_P1;PMS_P2;Temp;Humidity;BMP_temperature;BMP_pressure;BME280_temperature;BME280_humidity;BME280_pressure;Samples;Min_cycle;Max_cycle;Signal;HPM_P1;HPM_P2
2021/03/08 00:00:54;;;;;;;18.17;11.95;;;3.00;81.30;;;;;;2074280;28;20026;-74
2021/03/08 00:01:54;;;;;;;18.58;11.82;;;3.00;81.80;;;;;;2074296;28;20037;-74
2021/03/08 00:02:57;;;;;;;17.48;12.02;;;3.00;82.30;;;;;;2074108;28;20022;-74
2021/03/08 00:03:58;;;;;;;16.55;11.52;;;2.90;82.70;;;;;;2074397;28;20422;-74
2021/03/08 00:04:58;;;;;;;15.38;11.80;;;2.90;83.60;;;;;;2074060;28;20030;-74
2021/03/08 00:05:59;;;;;;;18.52;12.65;;;2.90;85.10;;;;;;2074176;28;20028;-72
2021/03/08 00:07:00;;;;;;;18.00;12.20;;;2.90;85.70;;;;;;2073604;28;20022;-75
2021/03/08 00:08:00;;;;;;;17.80;12.75;;;2.90;85.80;;;;;;2073691;28;20073;-74
2021/03/08 00:09:01;;;;;;;20.75;13.48;;;2.90;86.50;;;;;;2073160;28;20037;-75
2021/03/08 00:10:04;;;;;;;18.65;13.27;;;2.80;87.10;;;;;;2074193;28;20029;-74
2021/03/08 00:11:04;;;;;;;18.88;13.30;;;2.70;88.40;;;;;;2065397;28;20181;-74
2021/03/08 00:12:08;;;;;;;19.77;13.45;;;2.60;89.40;;;;;;2065845;28;20532;-74
2021/03/08 00:13:09;;;;;;;18.50;13.30;;;2.60;90.10;;;;;;2065290;28;20033;-73
2021/03/08 00:14:09;;;;;;;18.52;12.77;;;2.50;90.20;;;;;;2057489;28;20027;-74
2021/03/08 00:15:13;;;;;;;19.70;13.15;;;2.50;90.50;;;;;;2074253;28;20042;-74
2021/03/08 00:16:13;;;;;;;18.90;13.55;;;2.50;90.50;;;;;;2083779;28;20018;-74
2021/03/08 00:17:16;;;;;;;18.00;13.07;;;2.50;90.50;;;;;;2075340;28;20520;-74
2021/03/08 00:18:17;;;;;;;18.35;13.00;;;2.50;90.50;;;;;;2074653;28;20034;-74
2021/03/08 00:19:18;;;;;;;21.98;13.93;;;2.50;90.60;;;;;;2083241;28;20025;-74
2021/03/08 00:20:23;;;;;;;21.80;13.88;;;2.50;90.90;;;;;;2083755;28;20040;-73
2021/03/08 00:21:24;;;;;;;19.45;13.80;;;2.50;91.40;;;;;;2068371;28;20030;-73
2021/03/08 00:22:25;;;;;;;21.08;13.82;;;2.50;91.30;;;;;;2067422;28;20031;-73
2021/03/08 00:23:26;;;;;;;20.23;13.88;;;2.50;91.40;;;;;;2066040;28;20065;-73
2021/03/08 00:24:26;;;;;;;19.40;13.63;;;2.50;91.50;;;;;;2067032;28;20031;-74
2021/03/08 00:25:32;;;;;;;20.38;14.20;;;2.50;91.70;;;;;;2075916;28;20062;-73
2021/03/08 00:26:32;;;;;;;21.33;14.07;;;2.50;92.00;;;;;;2066583;28;20034;-74
2021/03/08 00:27:33;;;;;;;22.42;14.65;;;2.50;91.90;;;;;;2065720;28;20018;-74
2021/03/08 00:28:34;;;;;;;20.10;14.20;;;2.50;92.10;;;;;;2082380;28;20459;-74
2021/03/08 00:29:35;;;;;;;18.98;14.00;;;2.50;92.10;;;;;;2081959;28;20492;-74
2021/03/08 00:30:35;;;;;;;22.23;14.90;;;2.50;92.10;;;;;;2084104;28;20083;-73
2021/03/08 00:31:36;;;;;;;20.85;14.55;;;2.40;92.30;;;;;;2083339;28;20025;-73
2021/03/08 00:32:37;;;;;;;22.85;15.35;;;2.40;92.70;;;;;;2075571;28;20026;-74
2021/03/08 00:33:37;;;;;;;22.80;15.40;;;2.40;93.10;;;;;;2075171;28;20080;-74
2021/03/08 00:34:38;;;;;;;23.23;15.48;;;2.40;93.30;;;;;;2083215;28;20108;-73
2021/03/08 00:35:39;;;;;;;21.95;15.77;;;2.30;93.30;;;;;;2075377;28;20084;-74
2021/03/08 00:36:40;;;;;;;23.13;15.77;;;2.30;93.40;;;;;;2066510;28;20038;-73
2021/03/08 00:37:41;;;;;;;25.70;15.68;;;2.30;93.50;;;;;;2074469;28;20022;-73
2021/03/08 00:38:41;;;;;;;23.13;15.93;;;2.20;93.80;;;;;;2083068;28;20072;-73
2021/03/08 00:39:42;;;;;;;22.55;16.25;;;2.20;93.90;;;;;;2073771;28;20706;-73
2021/03/08 00:40:43;;;;;;;25.15;16.60;;;2.20;94.00;;;;;;2074400;28;20036;-73
2021/03/08 00:41:43;;;;;;;23.58;16.73;;;2.10;94.30;;;;;;2082794;28;20029;-73
2021/03/08 00:42:45;;;;;;;26.10;17.23;;;2.10;94.50;;;;;;2073396;28;20081;-73
2021/03/08 00:43:46;;;;;;;24.35;16.75;;;2.10;94.80;;;;;;2074237;28;20108;-72
2021/03/08 00:44:47;;;;;;;26.77;16.92;;;2.00;95.00;;;;;;2083417;28;20033;-72
2021/03/08 00:45:47;;;;;;;27.48;16.83;;;2.00;95.20;;;;;;2075680;28;20030;-73
2021/03/08 00:46:48;;;;;;;26.40;17.20;;;2.00;95.20;;;;;;2075737;28;20030;-74
2021/03/08 00:47:49;;;;;;;26.58;17.63;;;2.00;95.50;;;;;;2083746;28;20021;-75
2021/03/08 00:48:50;;;;;;;27.58;17.33;;;2.00;95.80;;;;;;2083627;28;20034;-74
2021/03/08 00:49:51;;;;;;;27.73;17.20;;;1.90;95.80;;;;;;2073493;28;20489;-73
2021/03/08 00:50:53;;;;;;;26.15;16.95;;;1.90;95.90;;;;;;2075410;28;20408;-73
2021/03/08 00:51:56;;;;;;;25.50;17.88;;;1.90;96.00;;;;;;2068115;28;20026;-72
2021/03/08 00:52:57;;;;;;;27.77;16.90;;;1.90;96.20;;;;;;2067737;28;20065;-74
2021/03/08 00:54:02;;;;;;;25.45;17.02;;;1.90;96.30;;;;;;2085170;28;20071;-73
2021/03/08 00:55:05;;;;;;;26.73;17.48;;;1.90;96.30;;;;;;2074630;28;20022;-73
2021/03/08 00:56:06;;;;;;;25.40;18.02;;;1.90;96.40;;;;;;2067868;28;20023;-75
2021/03/08 00:57:07;;;;;;;28.23;17.80;;;1.90;96.30;;;;;;2078962;28;20018;-74
2021/03/08 00:58:08;;;;;;;25.88;17.77;;;1.90;96.30;;;;;;2082207;28;20044;-74
2021/03/08 00:59:08;;;;;;;27.63;18.40;;;1.90;96.40;;;;;;2075403;28;20042;-75
2021/03/08 01:00:15;;;;;;;27.63;17.80;;;1.80;96.40;;;;;;2070183;28;20058;-75
2021/03/08 01:01:21;;;;;;;25.98;17.63;;;1.80;96.50;;;;;;2062591;28;20041;-76
2021/03/08 01:02:21;;;;;;;26.88;17.52;;;1.80;96.40;;;;;;2060364;28;20052;-75
2021/03/08 01:03:24;;;;;;;25.08;16.42;;;1.80;96.40;;;;;;2076867;28;20046;-73
2021/03/08 01:04:27;;;;;;;26.02;17.75;;;1.90;96.50;;;;;;2083503;28;20151;-74
2021/03/08 01:05:29;;;;;;;25.95;17.52;;;1.90;96.50;;;;;;2067182;28;20026;-74
2021/03/08 01:06:33;;;;;;;26.80;17.77;;;1.90;96.50;;;;;;2067420;28;20553;-73
2021/03/08 01:07:35;;;;;;;25.02;17.10;;;1.90;96.50;;;;;;2074003;28;20025;-73
2021/03/08 01:08:36;;;;;;;25.88;16.75;;;1.90;96.50;;;;;;2074517;28;20533;-74
2021/03/08 01:09:38;;;;;;;26.92;17.90;;;1.90;96.60;;;;;;2082410;28;20029;-73
2021/03/08 01:10:39;;;;;;;24.40;17.15;;;1.90;96.60;;;;;;2083967;28;20533;-75
2021/03/08 01:11:47;;;;;;;25.70;16.80;;;2.00;96.50;;;;;;2073366;28;20022;-75
2021/03/08 01:12:50;;;;;;;25.23;16.98;;;2.00;96.50;;;;;;2074092;28;20018;-73
2021/03/08 01:13:52;;;;;;;24.77;17.48;;;2.00;96.50;;;;;;2073853;28;20022;-73
2021/03/08 01:14:53;;;;;;;25.92;17.45;;;2.00;96.60;;;;;;2068306;28;20038;-73
2021/03/08 01:15:54;;;;;;;25.02;17.38;;;2.00;96.60;;;;;;2073895;28;20061;-74
2021/03/08 01:16:55;;;;;;;25.33;17.27;;;2.00;96.60;;;;;;2065560;28;20034;-73
2021/03/08 01:17:55;;;;;;;25.65;17.38;;;2.00;96.50;;;;;;2069464;28;20088;-73
2021/03/08 01:18:56;;;;;;;26.50;17.42;;;2.00;96.50;;;;;;2071379;28;20080;-73
2021/03/08 01:19:56;;;;;;;23.90;16.92;;;2.00;96.50;;;;;;2071789;28;20030;-74
2021/03/08 01:20:57;;;;;;;25.60;17.50;;;2.10;96.60;;;;;;2079956;28;20022;-74
2021/03/08 01:21:57;;;;;;;24.83;17.33;;;2.10;96.50;;;;;;2078988;28;20036;-72
2021/03/08 01:22:58;;;;;;;24.85;17.50;;;2.00;96.60;;;;;;2079000;28;20030;-73
2021/03/08 01:23:59;;;;;;;25.23;17.23;;;2.10;96.60;;;;;;2079231;28;20058;-73
2021/03/08 01:24:59;;;;;;;25.48;16.92;;;2.10;96.60;;;;;;2074325;28;20026;-73
2021/03/08 01:26:00;;;;;;;24.60;17.10;;;2.10;96.60;;;;;;2073965;28;20511;-73
2021/03/08 01:27:01;;;;;;;26.20;17.42;;;2.10;96.50;;;;;;2073741;28;20056;-73
2021/03/08 01:28:02;;;;;;;24.75;16.90;;;2.10;96.50;;;;;;2065312;28;20042;-74
2021/03/08 01:29:03;;;;;;;23.67;17.23;;;2.10;96.50;;;;;;2064673;28;20110;-74
2021/03/08 01:30:15;;;;;;;26.27;17.40;;;2.10;96.50;;;;;;2064915;28;20101;-73
2021/03/08 01:31:16;;;;;;;26.50;17.25;;;2.10;96.60;;;;;;2066183;28;20038;-73
2021/03/08 01:32:17;;;;;;;26.00;17.38;;;2.10;96.50;;;;;;2073538;28;20026;-74
2021/03/08 01:33:18;;;;;;;27.05;17.88;;;2.10;96.50;;;;;;2064902;28;20387;-73
2021/03/08 01:34:19;;;;;;;28.85;18.88;;;2.20;96.40;;;;;;2065582;28;20109;-73
2021/03/08 01:35:21;;;;;;;28.17;18.30;;;2.10;96.30;;;;;;2073840;28;20030;-73
2021/03/08 01:36:22;;;;;;;27.98;19.05;;;2.10;96.30;;;;;;2073864;28;20026;-74
2021/03/08 01:37:22;;;;;;;28.65;19.20;;;2.10;96.10;;;;;;2073767;28;20029;-74
2021/03/08 01:38:23;;;;;;;28.92;18.83;;;2.10;96.10;;;;;;2065336;28;20037;-75
2021/03/08 01:39:23;;;;;;;26.27;18.23;;;2.00;96.10;;;;;;2064508;28;20086;-75
2021/03/08 01:40:26;;;;;;;29.73;19.30;;;2.00;96.10;;;;;;2073287;28;20041;-75
2021/03/08 01:41:27;;;;;;;28.80;18.92;;;2.10;96.20;;;;;;2072850;28;20026;-76
2021/03/08 01:42:27;;;;;;;26.88;18.10;;;2.10;96.20;;;;;;2072882;28;20395;-75
2021/03/08 01:43:28;;;;;;;27.70;17.95;;;2.10;96.20;;;;;;2056826;28;20035;-75
2021/03/08 01:44:29;;;;;;;26.65;18.10;;;2.10;96.20;;;;;;2048912;28;20042;-74
2021/03/08 01:45:30;;;;;;;26.65;18.40;;;2.10;96.20;;;;;;2064977;28;20029;-75
2021/03/08 01:46:30;;;;;;;25.73;17.55;;;2.10;96.20;;;;;;2073042;28;20041;-75
2021/03/08 01:47:31;;;;;;;25.25;17.73;;;2.10;96.30;;;;;;2064854;28;20493;-75
2021/03/08 01:48:32;;;;;;;26.00;18.10;;;2.10;96.30;;;;;;2064917;28;20030;-75
2021/03/08 01:49:33;;;;;;;35.67;19.17;;;2.10;96.20;;;;;;2073112;28;20468;-75
2021/03/08 01:50:41;;;;;;;28.52;19.23;;;2.10;96.10;;;;;;2073415;28;20034;-74
2021/03/08 01:51:44;;;;;;;30.95;20.27;;;2.10;96.10;;;;;;2073547;28;20101;-75
2021/03/08 01:52:45;;;;;;;29.63;19.85;;;2.10;96.20;;;;;;2073356;28;20458;-74
2021/03/08 01:53:46;;;;;;;29.48;19.85;;;2.10;96.10;;;;;;2073415;28;20538;-74
2021/03/08 01:54:47;;;;;;;32.35;20.15;;;2.10;96.20;;;;;;2073358;28;20481;-72
2021/03/08 01:55:47;;;;;;;29.05;19.98;;;2.10;96.10;;;;;;2073383;28;20037;-74
2021/03/08 01:56:49;;;;;;;31.42;19.75;;;2.10;96.10;;;;;;2073518;28;20604;-74
2021/03/08 01:57:50;;;;;;;28.45;19.50;;;2.10;96.20;;;;;;2073376;28;20080;-75
2021/03/08 01:58:51;;;;;;;27.48;18.77;;;2.10;96.30;;;;;;2072966;28;20034;-74
2021/03/08 01:59:52;;;;;;;28.30;18.05;;;2.10;96.20;;;;;;2073171;28;20488;-73
2021/03/08 02:00:53;;;;;;;30.38;20.90;;;2.20;96.30;;;;;;2073426;28;20030;-75
2021/03/08 02:01:55;;;;;;;33.60;21.35;;;2.20;96.20;;;;;;2064599;28;20027;-75
2021/03/08 02:02:57;;;;;;;32.95;21.35;;;2.20;96.20;;;;;;2064985;28;20438;-73
2021/03/08 02:03:58;;;;;;;31.13;20.73;;;2.20;96.10;;;;;;2072811;28;20026;-75
2021/03/08 02:04:58;;;;;;;33.60;22.15;;;2.20;96.10;;;;;;2073476;28;20104;-74
2021/03/08 02:05:59;;;;;;;32.28;20.30;;;2.20;96.00;;;;;;2064606;28;20029;-74
2021/03/08 02:07:00;;;;;;;30.23;19.65;;;2.10;96.10;;;;;;2064725;28;20125;-74
2021/03/08 02:08:02;;;;;;;32.05;21.42;;;2.20;96.10;;;;;;2073487;28;20030;-74
2021/03/08 02:09:04;;;;;;;34.22;21.60;;;2.20;96.20;;;;;;2072651;28;20125;-74
2021/03/08 02:10:08;;;;;;;32.22;21.65;;;2.20;96.30;;;;;;2073300;28;20063;-74
2021/03/08 02:11:08;;;;;;;33.20;21.67;;;2.20;96.20;;;;;;2073568;28;20779;-74
2021/03/08 02:12:17;;;;;;;35.47;22.95;;;2.20;96.30;;;;;;2073366;28;20026;-74
2021/03/08 02:13:23;;;;;;;34.08;22.13;;;2.20;96.40;;;;;;2073561;28;20037;-74
2021/03/08 02:15:05;;;;;;;34.78;22.40;;;2.20;96.40;;;;;;2075081;28;20026;-74
2021/03/08 02:16:23;;;;;;;36.72;22.67;;;2.20;96.30;;;;;;2081574;28;20033;-74
2021/03/08 02:17:51;;;;;;;35.05;22.92;;;2.10;96.20;;;;;;2081492;28;20033;-75
2021/03/08 02:19:19;;;;;;;37.15;22.00;;;2.20;96.40;;;;;;2081374;28;20045;-75
2021/03/08 02:21:01;;;;;;;35.10;22.15;;;2.20;96.30;;;;;;2081889;28;20080;-74
2021/03/08 02:22:15;;;;;;;37.67;23.05;;;2.20;96.20;;;;;;2059815;28;20128;-75
2021/03/08 02:23:40;;;;;;;35.65;22.27;;;2.20;96.00;;;;;;2074151;28;20088;-74
2021/03/08 02:25:17;;;;;;;36.63;23.70;;;2.10;96.10;;;;;;2081790;28;20079;-75
2021/03/08 02:26:54;;;;;;;37.15;22.92;;;2.10;96.00;;;;;;2081463;28;20041;-74
2021/03/08 02:28:29;;;;;;;39.35;24.27;;;2.10;96.10;;;;;;2072710;28;20401;-74
2021/03/08 02:30:01;;;;;;;39.85;23.63;;;2.10;96.20;;;;;;2077093;28;20083;-74
2021/03/08 02:31:07;;;;;;;39.38;23.85;;;2.10;96.20;;;;;;2082097;28;20608;-74
2021/03/08 02:32:10;;;;;;;36.97;23.52;;;2.10;96.40;;;;;;2081697;28;20045;-75
2021/03/08 02:33:15;;;;;;;38.50;24.02;;;2.10;96.50;;;;;;2082175;28;20044;-74
2021/03/08 02:34:28;;;;;;;38.25;24.58;;;2.10;96.50;;;;;;2082542;28;20552;-75
2021/03/08 02:35:31;;;;;;;38.63;25.25;;;2.10;96.50;;;;;;2082404;28;20034;-74
2021/03/08 02:36:35;;;;;;;39.75;24.83;;;2.10;96.40;;;;;;2085632;28;20116;-74
2021/03/08 02:37:44;;;;;;;37.78;25.05;;;2.10;96.80;;;;;;2080049;28;20077;-74
2021/03/08 02:38:51;;;;;;;41.42;25.35;;;2.10;96.50;;;;;;2081567;28;20417;-75
2021/03/08 02:39:57;;;;;;;41.20;25.38;;;2.10;96.60;;;;;;2088482;28;20053;-74
2021/03/08 02:41:05;;;;;;;40.88;26.50;;;2.10;96.70;;;;;;2080128;28;20044;-74
2021/03/08 02:42:11;;;;;;;44.67;27.27;;;2.10;96.60;;;;;;2072684;28;20033;-74
2021/03/08 02:43:20;;;;;;;44.97;26.02;;;2.10;96.70;;;;;;2075591;28;20433;-74
2021/03/08 02:44:27;;;;;;;41.70;26.35;;;2.00;96.80;;;;;;2081525;28;20033;-74
2021/03/08 02:45:31;;;;;;;42.17;27.20;;;2.00;96.90;;;;;;2081532;28;20456;-74
2021/03/08 02:46:36;;;;;;;42.15;26.33;;;2.00;96.90;;;;;;2081257;28;20116;-74
2021/03/08 02:47:45;;;;;;;43.65;26.63;;;2.00;97.00;;;;;;2072508;28;20022;-75
2021/03/08 02:48:48;;;;;;;41.95;26.90;;;2.00;97.00;;;;;;2073741;28;20026;-75
2021/03/08 02:49:52;;;;;;;44.15;26.88;;;2.00;97.00;;;;;;2071980;28;20029;-75
2021/03/08 02:50:54;;;;;;;46.38;27.98;;;2.00;97.10;;;;;;2072967;28;20029;-74
2021/03/08 02:52:07;;;;;;;46.50;28.38;;;1.90;97.10;;;;;;2081068;28;20088;-74
2021/03/08 02:53:12;;;;;;;42.75;27.40;;;1.90;97.40;;;;;;2072405;28;20042;-74
2021/03/08 02:54:15;;;;;;;47.28;28.67;;;1.90;97.60;;;;;;2073136;28;20119;-74
2021/03/08 02:55:17;;;;;;;44.95;28.40;;;1.90;97.50;;;;;;2072176;28;20030;-74
2021/03/08 02:56:20;;;;;;;43.63;28.55;;;1.90;97.60;;;;;;2072739;28;20034;-74
2021/03/08 02:57:25;;;;;;;46.85;29.10;;;1.90;97.70;;;;;;2081106;28;20017;-75
2021/03/08 02:58:30;;;;;;;46.38;29.95;;;1.90;97.80;;;;;;2081076;28;20034;-74
2021/03/08 02:59:37;;;;;;;45.75;28.40;;;1.90;97.80;;;;;;2080302;28;20029;-74
2021/03/08 03:00:39;;;;;;;46.67;28.75;;;1.90;97.90;;;;;;2081249;28;20036;-75
2021/03/08 03:01:42;;;;;;;49.00;29.35;;;1.90;98.00;;;;;;2081149;28;20034;-75
2021/03/08 03:02:46;;;;;;;45.78;29.38;;;1.90;98.10;;;;;;2072352;28;20087;-74
2021/03/08 03:03:51;;;;;;;46.03;29.05;;;1.90;98.10;;;;;;2072665;28;20112;-74
2021/03/08 03:04:53;;;;;;;49.65;30.05;;;1.90;98.10;;;;;;2080976;28;20033;-75
2021/03/08 03:05:57;;;;;;;47.80;30.05;;;1.90;98.10;;;;;;2081163;28;20029;-74
2021/03/08 03:07:00;;;;;;;46.75;29.92;;;1.80;98.10;;;;;;2081123;28;20067;-74
2021/03/08 03:08:02;;;;;;;43.75;28.42;;;1.80;98.20;;;;;;2081126;28;20477;-74
2021/03/08 03:09:10;;;;;;;48.67;29.65;;;1.90;98.20;;;;;;2080484;28;20532;-75
2021/03/08 03:10:13;;;;;;;52.78;30.90;;;1.90;98.30;;;;;;2080974;28;20029;-74
2021/03/08 03:11:14;;;;;;;46.17;28.65;;;1.80;98.20;;;;;;2081038;28;20068;-74
2021/03/08 03:12:16;;;;;;;45.30;28.25;;;1.90;98.20;;;;;;2080911;28;20139;-74
2021/03/08 03:13:17;;;;;;;47.80;29.08;;;1.90;98.20;;;;;;2081103;28;20105;-75
2021/03/08 03:14:19;;;;;;;47.75;29.48;;;1.90;98.20;;;;;;2080194;28;20030;-74
2021/03/08 03:15:20;;;;;;;48.58;29.60;;;1.90;98.20;;;;;;2073350;28;20030;-74
2021/03/08 03:16:22;;;;;;;47.00;29.08;;;1.90;98.30;;;;;;2073699;28;20040;-74
2021/03/08 03:17:24;;;;;;;44.42;27.88;;;1.90;98.30;;;;;;2073349;28;20474;-75
2021/03/08 03:18:26;;;;;;;46.72;28.90;;;1.90;98.20;;;;;;2072861;28;20022;-74
2021/03/08 03:19:30;;;;;;;44.65;28.15;;;1.90;98.20;;;;;;2063340;28;20467;-74
2021/03/08 03:20:33;;;;;;;48.25;28.70;;;1.90;98.00;;;;;;2064423;28;20026;-74
2021/03/08 03:21:36;;;;;;;42.45;27.75;;;1.90;98.00;;;;;;2072966;28;20030;-75
2021/03/08 03:22:39;;;;;;;50.08;29.70;;;1.90;98.10;;;;;;2056079;28;20027;-75
2021/03/08 03:23:40;;;;;;;43.78;28.20;;;1.90;98.10;;;;;;2056776;28;20050;-75
2021/03/08 03:24:41;;;;;;;47.05;28.80;;;1.90;98.00;;;;;;2072947;28;20119;-75
2021/03/08 03:25:45;;;;;;;47.72;28.20;;;1.90;97.90;;;;;;2064147;28;20113;-74
2021/03/08 03:26:47;;;;;;;44.47;27.95;;;1.90;97.90;;;;;;2064828;28;20030;-75
2021/03/08 03:27:51;;;;;;;44.38;28.85;;;1.90;97.80;;;;;;2064089;28;20042;-74
2021/03/08 03:28:52;;;;;;;43.45;27.58;;;1.90;97.80;;;;;;2064207;28;20445;-74
2021/03/08 03:29:54;;;;;;;44.57;27.60;;;1.90;97.80;;;;;;2072523;28;20473;-75
2021/03/08 03:30:58;;;;;;;44.92;28.55;;;1.90;97.70;;;;;;2072879;28;20026;-75
2021/03/08 03:31:59;;;;;;;45.42;28.02;;;1.90;97.80;;;;;;2072562;28;20125;-75
2021/03/08 03:33:02;;;;;;;42.88;27.63;;;1.90;97.80;;;;;;2072916;28;20032;-75
2021/03/08 03:34:03;;;;;;;47.65;29.13;;;2.00;97.90;;;;;;2064151;28;20034;-75
2021/03/08 03:35:06;;;;;;;48.38;28.60;;;2.00;97.70;;;;;;2065167;28;20026;-75
2021/03/08 03:36:08;;;;;;;45.50;28.52;;;1.90;97.60;;;;;;2074459;28;20096;-75
2021/03/08 03:37:09;;;;;;;45.30;28.20;;;1.90;97.60;;;;;;2065931;28;20042;-75
2021/03/08 03:38:11;;;;;;;43.33;27.63;;;1.90;97.60;;;;;;2065675;28;20026;-75
2021/03/08 03:39:12;;;;;;;40.75;26.13;;;1.90;97.70;;;;;;2073640;28;20026;-75
2021/03/08 03:40:18;;;;;;;43.85;27.70;;;1.90;97.70;;;;;;2074430;28;20088;-75
2021/03/08 03:41:19;;;;;;;44.58;27.50;;;2.00;97.60;;;;;;2074607;28;20495;-75
2021/03/08 03:42:19;;;;;;;42.15;27.33;;;2.00;97.50;;;;;;2074533;28;20030;-74
2021/03/08 03:43:20;;;;;;;43.53;27.20;;;2.00;97.60;;;;;;2074807;28;20038;-74
2021/03/08 03:44:21;;;;;;;47.63;29.67;;;2.00;97.60;;;;;;2074693;28;20722;-74
2021/03/08 03:45:23;;;;;;;45.80;28.75;;;2.00;97.40;;;;;;2074688;28;20036;-74
2021/03/08 03:46:24;;;;;;;47.38;29.05;;;2.00;97.40;;;;;;2074773;28;20038;-74
2021/03/08 03:47:25;;;;;;;46.30;28.92;;;2.00;97.40;;;;;;2066299;28;20030;-74
2021/03/08 03:48:25;;;;;;;44.20;26.70;;;2.00;97.60;;;;;;2058222;28;20122;-75
2021/03/08 03:49:26;;;;;;;43.78;27.17;;;2.00;97.60;;;;;;2065839;28;20543;-74
2021/03/08 03:50:27;;;;;;;44.67;28.73;;;2.00;97.60;;;;;;2074883;28;20400;-75
2021/03/08 03:51:27;;;;;;;43.10;27.55;;;2.00;97.50;;;;;;2066002;28;20528;-75
2021/03/08 03:52:28;;;;;;;46.80;29.23;;;2.00;97.40;;;;;;2065611;28;20478;-75
2021/03/08 03:53:29;;;;;;;46.38;28.52;;;2.00;97.40;;;;;;2074323;28;20476;-74
2021/03/08 03:54:29;;;;;;;47.78;28.92;;;2.00;97.60;;;;;;2074671;28;20018;-74
2021/03/08 03:55:30;;;;;;;44.13;27.77;;;2.00;97.50;;;;;;2075020;28;20058;-74
2021/03/08 03:56:32;;;;;;;45.70;28.50;;;2.00;97.60;;;;;;2066234;28;20026;-74
2021/03/08 03:58:10;;;;;;;42.85;26.65;;;2.00;97.60;;;;;;2066296;28;20532;-74
2021/03/08 03:59:36;;;;;;;43.35;25.77;;;2.00;97.60;;;;;;2074082;28;20030;-74
2021/03/08 04:01:00;;;;;;;41.38;25.70;;;2.10;97.50;;;;;;2074092;28;20489;-74
2021/03/08 04:02:05;;;;;;;45.05;26.23;;;2.10;97.30;;;;;;2061834;28;20049;-74
2021/03/08 04:03:09;;;;;;;44.75;26.98;;;2.10;97.30;;;;;;2074261;28;20053;-74
2021/03/08 04:04:20;;;;;;;44.58;27.75;;;2.10;97.30;;;;;;2074078;28;20018;-74
2021/03/08 04:05:24;;;;;;;47.92;28.00;;;2.10;97.30;;;;;;2074184;28;20057;-74
2021/03/08 04:06:32;;;;;;;49.60;29.13;;;2.10;97.30;;;;;;2074046;28;20072;-74
2021/03/08 04:07:38;;;;;;;45.08;27.73;;;2.10;97.40;;;;;;2074534;28;20025;-75
2021/03/08 04:08:45;;;;;;;44.70;27.70;;;2.00;97.50;;;;;;2057890;28;20443;-74
2021/03/08 04:09:49;;;;;;;45.67;28.35;;;2.00;97.50;;;;;;2058414;28;20037;-74
2021/03/08 04:10:52;;;;;;;46.85;28.98;;;2.00;97.70;;;;;;2073899;28;20109;-74
2021/03/08 04:11:55;;;;;;;45.83;29.13;;;2.00;97.70;;;;;;2073855;28;20022;-74
2021/03/08 04:13:03;;;;;;;50.92;29.80;;;2.00;97.70;;;;;;2065226;28;20019;-74
2021/03/08 04:14:05;;;;;;;48.28;29.27;;;2.00;97.80;;;;;;2069426;28;20105;-73
2021/03/08 04:15:08;;;;;;;50.60;30.17;;;2.00;97.90;;;;;;2074181;28;20018;-73
2021/03/08 04:16:10;;;;;;;49.97;30.23;;;2.00;98.00;;;;;;2073739;28;20038;-73
2021/03/08 04:17:11;;;;;;;50.92;30.67;;;2.00;98.00;;;;;;2073353;28;20026;-73
2021/03/08 04:18:12;;;;;;;49.28;30.27;;;2.00;98.00;;;;;;2073432;28;20092;-73
2021/03/08 04:19:15;;;;;;;47.30;29.33;;;2.00;98.10;;;;;;2081517;28;20056;-73
2021/03/08 04:20:19;;;;;;;48.80;29.63;;;2.00;98.20;;;;;;2082185;28;20021;-73
2021/03/08 04:21:20;;;;;;;47.22;29.58;;;2.00;98.20;;;;;;2082191;28;20539;-73
2021/03/08 04:22:25;;;;;;;49.25;30.33;;;2.00;98.20;;;;;;2082095;28;20484;-74
2021/03/08 04:23:27;;;;;;;53.63;29.92;;;2.00;98.30;;;;;;2082186;28;20048;-74
2021/03/08 04:24:30;;;;;;;51.58;31.23;;;1.90;98.20;;;;;;2073375;28;20033;-73
2021/03/08 04:25:33;;;;;;;48.20;30.05;;;2.00;98.40;;;;;;2073726;28;20034;-73
2021/03/08 04:26:38;;;;;;;49.13;30.10;;;2.00;98.50;;;;;;2073370;28;20053;-73
2021/03/08 04:27:39;;;;;;;45.58;29.05;;;2.00;98.60;;;;;;2073914;28;20045;-73
2021/03/08 04:28:41;;;;;;;48.85;29.48;;;2.00;98.60;;;;;;2073365;28;20022;-73
2021/03/08 04:29:43;;;;;;;49.15;30.15;;;2.00;98.60;;;;;;2073045;28;20033;-73
2021/03/08 04:30:48;;;;;;;47.20;29.23;;;1.90;98.50;;;;;;2073700;28;20034;-73
2021/03/08 04:31:49;;;;;;;47.25;29.13;;;1.90;98.40;;;;;;2065696;28;20821;-73
2021/03/08 04:32:54;;;;;;;47.53;29.15;;;1.90;98.60;;;;;;2073623;28;20018;-74
2021/03/08 04:33:56;;;;;;;50.50;29.15;;;2.00;98.80;;;;;;2082329;28;20048;-73
2021/03/08 04:34:59;;;;;;;46.55;28.92;;;2.00;98.80;;;;;;2082330;28;20029;-73
2021/03/08 04:36:01;;;;;;;47.97;29.52;;;2.00;98.80;;;;;;2082386;28;20366;-74
2021/03/08 04:37:03;;;;;;;49.83;29.58;;;2.00;98.90;;;;;;2081623;28;20021;-74
2021/03/08 04:38:05;;;;;;;48.78;30.35;;;1.90;98.80;;;;;;2081448;28;20038;-74
2021/03/08 04:39:06;;;;;;;47.15;28.98;;;1.90;98.80;;;;;;2081545;28;20029;-75
2021/03/08 04:40:08;;;;;;;46.75;28.30;;;2.00;99.00;;;;;;2082065;28;20034;-74
2021/03/08 04:41:12;;;;;;;44.88;27.65;;;2.00;99.30;;;;;;2073569;28;20466;-74
2021/03/08 04:42:15;;;;;;;45.88;28.20;;;2.00;99.00;;;;;;2073761;28;20032;-74
2021/03/08 04:43:16;;;;;;;46.67;28.98;;;2.00;98.90;;;;;;2082318;28;20737;-75
2021/03/08 04:44:17;;;;;;;44.38;27.88;;;2.00;98.70;;;;;;2073362;28;20101;-74
2021/03/08 04:45:19;;;;;;;44.20;28.55;;;2.00;98.60;;;;;;2073421;28;20057;-74
2021/03/08 04:46:21;;;;;;;47.03;27.65;;;2.00;98.70;;;;;;2081418;28;20025;-74
2021/03/08 04:47:23;;;;;;;44.50;28.10;;;2.00;98.70;;;;;;2081967;28;20469;-74
2021/03/08 04:48:26;;;;;;;45.88;29.08;;;2.00;98.60;;;;;;2082237;28;20064;-75
2021/03/08 04:49:27;;;;;;;45.33;28.25;;;2.00;98.60;;;;;;2081373;28;20032;-74
2021/03/08 04:50:28;;;;;;;50.65;29.45;;;2.00;98.60;;;;;;2081961;28;20037;-74
2021/03/08 04:51:30;;;;;;;45.55;28.42;;;2.00;98.60;;;;;;2082133;28;20484;-74
2021/03/08 04:52:31;;;;;;;46.85;28.60;;;2.00;98.40;;;;;;2073123;28;20042;-74
2021/03/08 04:53:32;;;;;;;42.30;27.17;;;2.00;98.40;;;;;;2065301;28;20478;-74
2021/03/08 04:54:35;;;;;;;42.17;26.80;;;2.00;98.50;;;;;;2073276;28;20096;-74
2021/03/08 04:55:36;;;;;;;46.75;27.95;;;2.00;98.50;;;;;;2073313;28;20026;-73
2021/03/08 04:56:38;;;;;;;46.60;29.00;;;2.00;98.50;;;;;;2073095;28;20107;-74
2021/03/08 04:57:40;;;;;;;45.70;27.98;;;2.00;98.30;;;;;;2081251;28;20060;-74
2021/03/08 04:58:41;;;;;;;45.20;28.58;;;2.00;98.40;;;;;;2081285;28;20021;-74
2021/03/08 04:59:42;;;;;;;45.88;28.58;;;2.00;98.50;;;;;;2081241;28;20083;-74
2021/03/08 05:00:42;;;;;;;49.90;29.58;;;2.00;98.70;;;;;;2081953;28;20374;-74
2021/03/08 05:01:45;;;;;;;46.88;29.55;;;2.10;98.80;;;;;;2073186;28;20040;-74
2021/03/08 05:02:47;;;;;;;49.72;29.25;;;2.00;98.70;;;;;;2073319;28;20026;-75
2021/03/08 05:03:50;;;;;;;47.42;29.27;;;2.00;98.60;;;;;;2073282;28;20118;-74
2021/03/08 05:04:52;;;;;;;49.47;30.50;;;2.00;98.70;;;;;;2073410;28;20029;-75
2021/03/08 05:05:56;;;;;;;46.90;28.77;;;2.00;98.70;;;;;;2073323;28;20041;-75
2021/03/08 05:06:58;;;;;;;45.40;27.77;;;2.00;98.70;;;;;;2073588;28;20093;-74
2021/03/08 05:08:04;;;;;;;47.95;28.33;;;2.00;98.70;;;;;;2081854;28;20025;-74
2021/03/08 05:09:08;;;;;;;43.75;27.25;;;2.00;98.50;;;;;;2072708;28;20354;-75
2021/03/08 05:10:11;;;;;;;45.47;28.77;;;2.00;98.50;;;;;;2074096;28;20096;-75
2021/03/08 05:11:12;;;;;;;46.30;27.80;;;2.00;98.50;;;;;;2082311;28;20028;-74
2021/03/08 05:12:13;;;;;;;46.40;28.10;;;2.00;98.50;;;;;;2073444;28;20478;-74
2021/03/08 05:13:15;;;;;;;47.20;28.83;;;2.00;98.40;;;;;;2073312;28;20026;-74
2021/03/08 05:14:19;;;;;;;49.28;29.63;;;2.10;98.40;;;;;;2081056;28;20108;-74
2021/03/08 05:15:23;;;;;;;49.85;30.65;;;2.00;98.30;;;;;;2081270;28;20032;-74
2021/03/08 05:16:25;;;;;;;48.65;30.63;;;2.00;98.30;;;;;;2072983;28;20032;-74
2021/03/08 05:17:26;;;;;;;50.58;30.33;;;2.00;98.50;;;;;;2065215;28;20054;-75
2021/03/08 05:18:29;;;;;;;52.08;31.23;;;2.00;98.70;;;;;;2073315;28;20026;-74
2021/03/08 05:19:30;;;;;;;52.22;30.63;;;2.00;98.80;;;;;;2072282;28;20081;-74
2021/03/08 05:20:32;;;;;;;48.75;30.50;;;2.00;98.80;;;;;;2072922;28;20034;-75
2021/03/08 05:21:34;;;;;;;48.80;29.85;;;2.00;98.80;;;;;;2081236;28;20110;-74
2021/03/08 05:22:36;;;;;;;48.38;29.38;;;2.00;98.80;;;;;;2073167;28;20057;-74
2021/03/08 05:23:37;;;;;;;49.08;29.63;;;2.00;98.80;;;;;;2073222;28;20033;-74
2021/03/08 05:24:39;;;;;;;51.47;31.83;;;2.00;98.80;;;;;;2081292;28;20596;-74
2021/03/08 05:25:39;;;;;;;52.00;31.38;;;2.10;98.70;;;;;;2081353;28;20071;-74
2021/03/08 05:26:41;;;;;;;54.58;32.10;;;2.10;98.60;;;;;;2081189;28;20120;-74